Time;durP1;ratioP1;P1;durP2;ratioP2;P2;SDS_P1;SDS_P2;PMS_P1;PMS_P2;Temp;Humidity;BMP_temperature;BMP_pressure;BME280_temperature;BME280_humidity;BME280_pressure;Samples;Min_cycle;Max_cycle;Signal;HPM_P1;HPM_P2
2023/03/22 00:00:28;;;;;;;14.18;6.47;;;9.70;99.90;;;;;;5015581;28;20041;-67
2023/03/22 00:02:56;;;;;;;13.68;5.97;;;9.70;99.90;;;;;;5016025;28;20045;-67
2023/03/22 00:05:22;;;;;;;15.00;6.60;;;9.70;99.90;;;;;;5032125;28;20045;-67
2023/03/22 00:07:52;;;;;;;16.67;7.07;;;9.70;99.90;;;;;;4999801;28;20041;-67
2023/03/22 00:10:19;;;;;;;13.68;6.47;;;9.60;99.90;;;;;;5032212;28;20045;-67
2023/03/22 00:12:45;;;;;;;12.60;6.13;;;9.60;99.90;;;;;;5033439;28;20038;-67
2023/03/22 00:15:11;;;;;;;18.25;6.78;;;9.60;99.90;;;;;;5032731;28;20528;-67
2023/03/22 00:17:37;;;;;;;11.80;5.95;;;9.60;99.90;;;;;;5014751;28;20077;-67
2023/03/22 00:20:05;;;;;;;9.57;5.35;;;9.60;99.90;;;;;;5014959;28;20038;-67
2023/03/22 00:22:33;;;;;;;16.02;6.38;;;9.60;99.90;;;;;;5015715;28;20056;-67
2023/03/22 00:24:59;;;;;;;10.93;5.20;;;9.60;99.90;;;;;;5032323;28;20041;-67
2023/03/22 00:27:25;;;;;;;12.07;5.10;;;9.50;99.90;;;;;;5032283;28;20144;-68
2023/03/22 00:29:52;;;;;;;13.35;5.68;;;9.50;99.90;;;;;;5033108;28;20048;-68
2023/03/22 00:32:18;;;;;;;12.45;4.93;;;9.50;99.90;;;;;;5013911;28;20034;-67
2023/03/22 00:34:43;;;;;;;11.90;4.75;;;9.50;99.90;;;;;;5015222;28;20090;-68
2023/03/22 00:37:09;;;;;;;15.77;6.05;;;9.50;99.90;;;;;;5032303;28;20140;-68
2023/03/22 00:39:34;;;;;;;13.75;4.68;;;9.50;99.90;;;;;;4997998;28;20065;-68
2023/03/22 00:42:02;;;;;;;12.98;4.47;;;9.40;99.90;;;;;;5015345;28;20042;-68
2023/03/22 00:44:27;;;;;;;14.13;4.70;;;9.40;99.90;;;;;;5032473;28;20038;-68
2023/03/22 00:46:53;;;;;;;15.82;4.78;;;9.40;99.90;;;;;;5014113;28;20048;-67
2023/03/22 00:49:19;;;;;;;10.68;4.30;;;9.40;99.90;;;;;;5014457;28;20040;-68
2023/03/22 00:51:44;;;;;;;9.52;3.15;;;9.40;99.90;;;;;;5015038;28;20395;-68
2023/03/22 00:54:10;;;;;;;10.52;3.72;;;9.40;99.90;;;;;;5031426;28;20398;-68
2023/03/22 00:56:37;;;;;;;14.27;4.25;;;9.40;99.90;;;;;;4998467;28;20072;-68
2023/03/22 00:59:03;;;;;;;8.32;3.58;;;9.40;99.90;;;;;;5014676;28;20442;-68
2023/03/22 01:01:29;;;;;;;11.50;3.45;;;9.40;99.90;;;;;;5031441;28;20037;-68
2023/03/22 01:03:55;;;;;;;10.85;4.55;;;9.30;99.90;;;;;;5039141;28;20124;-68
2023/03/22 01:06:20;;;;;;;13.07;3.15;;;9.30;99.90;;;;;;5016924;28;20044;-68
2023/03/22 01:08:49;;;;;;;13.23;3.60;;;9.30;99.90;;;;;;5034833;28;20037;-68
2023/03/22 01:11:15;;;;;;;10.27;3.10;;;9.30;99.90;;;;;;5017756;28;20076;-68
2023/03/22 01:13:41;;;;;;;11.50;3.60;;;9.30;99.90;;;;;;5033747;28;20635;-68
2023/03/22 01:16:07;;;;;;;9.02;2.72;;;9.30;99.90;;;;;;5051426;28;20052;-68
2023/03/22 01:18:34;;;;;;;10.00;3.25;;;9.30;99.90;;;;;;5033920;28;20040;-68
2023/03/22 01:20:59;;;;;;;8.18;2.50;;;9.30;99.90;;;;;;5033480;28;20037;-68
2023/03/22 01:23:25;;;;;;;11.07;2.40;;;9.30;99.90;;;;;;5051771;28;20048;-68
2023/03/22 01:25:51;;;;;;;10.48;3.20;;;9.20;99.90;;;;;;5034276;28;20037;-68
2023/03/22 01:28:16;;;;;;;9.43;2.70;;;9.20;99.90;;;;;;5050750;28;20033;-68
2023/03/22 01:30:42;;;;;;;9.80;2.63;;;9.30;99.90;;;;;;5033853;28;20504;-68
2023/03/22 01:33:09;;;;;;;8.82;3.17;;;9.30;99.90;;;;;;5051371;28;20409;-67
2023/03/22 01:35:36;;;;;;;8.40;2.58;;;9.30;99.90;;;;;;5017153;28;20551;-68
2023/03/22 01:38:02;;;;;;;11.70;2.75;;;9.20;99.90;;;;;;5034035;28;20029;-68
2023/03/22 01:40:28;;;;;;;8.43;2.22;;;9.20;99.90;;;;;;5051489;28;20094;-68
2023/03/22 01:42:54;;;;;;;8.38;2.80;;;9.20;99.90;;;;;;5051256;28;20108;-68
2023/03/22 01:45:35;;;;;;;8.95;2.90;;;9.20;99.90;;;;;;5033191;28;20045;-68
2023/03/22 01:48:15;;;;;;;8.07;2.60;;;9.20;99.90;;;;;;5033930;28;20056;-67
2023/03/22 01:51:02;;;;;;;9.43;2.63;;;9.10;99.90;;;;;;5033126;28;20037;-68
2023/03/22 01:53:32;;;;;;;9.75;2.65;;;9.10;99.90;;;;;;5051497;28;20076;-68
2023/03/22 01:55:58;;;;;;;7.10;2.30;;;9.10;99.90;;;;;;5033474;28;20087;-68
2023/03/22 01:58:24;;;;;;;12.27;2.75;;;9.10;99.90;;;;;;5033648;28;20068;-68
2023/03/22 02:00:50;;;;;;;11.80;2.70;;;9.00;99.90;;;;;;5033871;28;20107;-68
2023/03/22 02:03:25;;;;;;;11.95;2.83;;;9.00;99.90;;;;;;5050485;28;20041;-68
2023/03/22 02:05:52;;;;;;;10.73;2.58;;;9.00;99.90;;;;;;5033922;28;20076;-68
2023/03/22 02:08:19;;;;;;;8.95;2.50;;;9.00;99.90;;;;;;5033455;28;20123;-68
2023/03/22 02:10:44;;;;;;;11.52;3.58;;;9.00;99.90;;;;;;5047641;28;20040;-67
2023/03/22 02:13:25;;;;;;;8.85;2.67;;;9.00;99.90;;;;;;5013543;28;20041;-68
2023/03/22 02:15:59;;;;;;;10.82;2.60;;;9.00;99.90;;;;;;5014138;28;20128;-67
2023/03/22 02:18:34;;;;;;;11.32;2.35;;;9.00;99.90;;;;;;5013115;28;20045;-67
2023/03/22 02:21:18;;;;;;;;;;;9.00;99.90;;;;;;5014300;28;20482;-68
2023/03/22 02:24:08;;;;;;;8.57;2.55;;;9.10;99.90;;;;;;5013032;28;20000;-68
2023/03/22 02:27:05;;;;;;;8.10;2.30;;;9.10;99.90;;;;;;4998704;28;20030;-67
2023/03/22 02:30:12;;;;;;;8.52;1.88;;;9.10;99.90;;;;;;5001987;28;20391;-68
2023/03/22 02:33:20;;;;;;;12.10;2.75;;;9.20;99.90;;;;;;4950029;28;20041;-67
2023/03/22 02:36:06;;;;;;;8.15;2.28;;;9.20;99.90;;;;;;5013890;28;20547;-67
2023/03/22 02:38:59;;;;;;;11.57;3.03;;;9.20;99.90;;;;;;4996788;28;20037;-68
2023/03/22 02:41:25;;;;;;;11.32;2.10;;;9.30;99.90;;;;;;5014216;28;20045;-67
2023/03/22 02:43:50;;;;;;;8.50;2.13;;;9.30;99.90;;;;;;5000925;28;20086;-67
2023/03/22 02:46:42;;;;;;;9.15;2.47;;;9.30;99.90;;;;;;5016107;28;20394;-68
2023/03/22 02:49:27;;;;;;;9.80;2.20;;;9.30;99.90;;;;;;5000830;28;20372;-67
2023/03/22 02:52:05;;;;;;;10.15;2.35;;;9.40;99.90;;;;;;5016683;28;20052;-68
2023/03/22 02:54:43;;;;;;;10.25;2.45;;;9.40;99.90;;;;;;5001063;28;20415;-68
2023/03/22 02:57:25;;;;;;;9.35;3.00;;;9.40;99.90;;;;;;5016654;28;20498;-68
2023/03/22 02:59:52;;;;;;;11.32;2.33;;;9.50;99.90;;;;;;5034153;28;20049;-67
2023/03/22 03:02:20;;;;;;;7.50;2.20;;;9.50;99.90;;;;;;5034428;28;20071;-67
2023/03/22 03:04:49;;;;;;;10.55;2.28;;;9.50;99.90;;;;;;5016770;28;20077;-67
2023/03/22 03:07:20;;;;;;;12.23;2.42;;;9.50;99.90;;;;;;5015529;28;20039;-67
2023/03/22 03:09:46;;;;;;;8.13;2.28;;;9.50;99.90;;;;;;5016964;28;20067;-67
2023/03/22 03:12:17;;;;;;;11.60;2.65;;;9.50;99.90;;;;;;5016451;28;20038;-68
2023/03/22 03:14:43;;;;;;;8.00;2.15;;;9.60;99.90;;;;;;5016089;28;20193;-67
2023/03/22 03:17:32;;;;;;;10.63;2.55;;;9.60;99.90;;;;;;5016254;28;20124;-68
2023/03/22 03:20:07;;;;;;;13.23;3.10;;;9.60;99.90;;;;;;5016094;28;20085;-67
2023/03/22 03:22:38;;;;;;;14.33;2.97;;;9.60;99.90;;;;;;5016897;28;20076;-68
2023/03/22 03:25:17;;;;;;;7.68;2.67;;;9.60;99.90;;;;;;5000017;28;20300;-68
2023/03/22 03:28:14;;;;;;;13.65;2.97;;;9.60;99.90;;;;;;5015939;28;20107;-67
2023/03/22 03:31:15;;;;;;;8.75;3.55;;;9.60;99.90;;;;;;5033748;28;20049;-67
2023/03/22 03:34:10;;;;;;;10.02;2.35;;;9.60;99.90;;;;;;5017452;28;20057;-68
2023/03/22 03:36:41;;;;;;;9.90;2.70;;;9.60;99.90;;;;;;5036492;28;20457;-68
2023/03/22 03:39:12;;;;;;;7.90;3.10;;;9.60;99.90;;;;;;5035602;28;20067;-68
2023/03/22 03:41:39;;;;;;;11.02;2.40;;;9.60;99.90;;;;;;5035416;28;20044;-68
2023/03/22 03:44:06;;;;;;;10.20;2.75;;;9.60;99.90;;;;;;5053404;28;20041;-68
2023/03/22 03:46:32;;;;;;;9.45;2.67;;;9.60;99.90;;;;;;5020038;28;20151;-68
2023/03/22 03:48:59;;;;;;;7.60;2.45;;;9.60;99.90;;;;;;5028952;28;20526;-67
2023/03/22 03:51:26;;;;;;;8.82;2.25;;;9.60;99.90;;;;;;5015490;28;20049;-68
2023/03/22 03:53:52;;;;;;;6.68;1.98;;;9.60;99.90;;;;;;5032748;28;20044;-68
2023/03/22 03:56:18;;;;;;;13.38;3.33;;;9.60;99.90;;;;;;5014789;28;20128;-67
2023/03/22 03:58:43;;;;;;;8.55;2.50;;;9.60;99.90;;;;;;5033805;28;20041;-67
2023/03/22 04:01:09;;;;;;;10.68;2.13;;;9.60;99.90;;;;;;5032933;28;20037;-67
2023/03/22 04:03:35;;;;;;;10.52;2.40;;;9.60;99.90;;;;;;5015116;28;20041;-67
2023/03/22 04:06:01;;;;;;;12.32;2.60;;;9.60;99.90;;;;;;5033446;28;20091;-67
2023/03/22 04:08:26;;;;;;;16.55;2.70;;;9.60;99.90;;;;;;5033507;28;20037;-67
2023/03/22 04:10:52;;;;;;;9.93;2.67;;;9.60;99.90;;;;;;5015070;28;20038;-68
2023/03/22 04:13:20;;;;;;;11.27;2.75;;;9.50;99.90;;;;;;5015046;28;20088;-68
2023/03/22 04:15:46;;;;;;;15.32;3.00;;;9.50;99.90;;;;;;5015835;28;20435;-68
2023/03/22 04:18:12;;;;;;;7.88;2.45;;;9.50;99.90;;;;;;5014292;28;20160;-68
2023/03/22 04:20:40;;;;;;;7.35;2.30;;;9.50;99.90;;;;;;4999267;28;20129;-67
2023/03/22 04:23:09;;;;;;;9.27;2.47;;;9.40;99.90;;;;;;5014916;28;20548;-68
2023/03/22 04:25:36;;;;;;;10.05;3.15;;;9.50;99.90;;;;;;5032355;28;20076;-68
2023/03/22 04:28:03;;;;;;;9.45;3.10;;;9.40;99.90;;;;;;4998960;28;20383;-68
2023/03/22 04:30:29;;;;;;;10.95;2.88;;;9.40;99.90;;;;;;4997817;28;20048;-68
2023/03/22 04:32:55;;;;;;;9.80;3.47;;;9.40;99.90;;;;;;5015229;28;20522;-67
2023/03/22 04:35:21;;;;;;;8.35;2.65;;;9.40;99.90;;;;;;4998544;28;20049;-68
2023/03/22 04:37:47;;;;;;;12.18;3.72;;;9.40;99.90;;;;;;5014575;28;20050;-67
2023/03/22 04:40:19;;;;;;;12.80;3.72;;;9.40;99.90;;;;;;5032134;28;20056;-67
2023/03/22 04:42:45;;;;;;;8.85;2.75;;;9.40;99.90;;;;;;5015500;28;20041;-67
2023/03/22 04:45:12;;;;;;;11.68;3.65;;;9.30;99.90;;;;;;5013662;28;20049;-68
2023/03/22 04:47:39;;;;;;;12.35;4.05;;;9.30;99.90;;;;;;5015025;28;20037;-68
2023/03/22 04:50:06;;;;;;;7.53;3.53;;;9.40;99.90;;;;;;5014727;28;20049;-67
2023/03/22 04:52:31;;;;;;;8.13;3.10;;;9.40;99.90;;;;;;4997905;28;20042;-67
2023/03/22 04:54:57;;;;;;;8.25;3.78;;;9.40;99.90;;;;;;5032572;28;20063;-67
2023/03/22 04:57:23;;;;;;;14.43;4.18;;;9.40;99.90;;;;;;5032344;28;20041;-67
2023/03/22 04:59:49;;;;;;;13.27;3.80;;;9.30;99.90;;;;;;5014099;28;20045;-67
2023/03/22 05:02:15;;;;;;;13.05;4.45;;;9.30;99.90;;;;;;5032052;28;20133;-67
2023/03/22 05:04:41;;;;;;;10.00;3.58;;;9.30;99.90;;;;;;5014542;28;20088;-67
2023/03/22 05:07:07;;;;;;;12.05;3.97;;;9.40;99.90;;;;;;5013476;28;20136;-67
2023/03/22 05:09:32;;;;;;;10.38;4.75;;;9.40;99.90;;;;;;5014832;28;20038;-67
2023/03/22 05:11:58;;;;;;;8.40;3.35;;;9.30;99.90;;;;;;5041916;28;20029;-67
2023/03/22 05:14:24;;;;;;;10.50;4.60;;;9.40;99.90;;;;;;5033047;28;20474;-67
2023/03/22 05:16:50;;;;;;;12.20;4.90;;;9.40;99.90;;;;;;5034611;28;20136;-67
2023/03/22 05:19:15;;;;;;;10.00;4.38;;;9.30;99.90;;;;;;5034129;28;20512;-67
2023/03/22 05:21:43;;;;;;;11.23;4.30;;;9.30;99.90;;;;;;5033608;28;20041;-67
2023/03/22 05:24:09;;;;;;;13.00;4.32;;;9.40;99.90;;;;;;5051114;28;20072;-68
2023/03/22 05:26:41;;;;;;;10.55;4.55;;;9.40;99.90;;;;;;5017408;28;20044;-67
2023/03/22 05:29:09;;;;;;;13.43;4.60;;;9.40;99.90;;;;;;5051886;28;20048;-67
2023/03/22 05:31:35;;;;;;;12.02;4.75;;;9.40;99.90;;;;;;5034245;28;20037;-68
2023/03/22 05:34:02;;;;;;;11.43;5.13;;;9.40;99.90;;;;;;5033281;28;20125;-68
2023/03/22 05:36:28;;;;;;;12.75;5.65;;;9.40;99.90;;;;;;5051845;28;20541;-68
2023/03/22 05:38:56;;;;;;;11.05;4.93;;;9.40;99.90;;;;;;5033783;28;20402;-68
2023/03/22 05:41:21;;;;;;;11.05;5.68;;;9.40;99.90;;;;;;5032883;28;20106;-68
2023/03/22 05:43:47;;;;;;;11.07;6.03;;;9.40;99.90;;;;;;5034151;28;20041;-68
2023/03/22 05:46:13;;;;;;;14.98;5.20;;;9.40;99.90;;;;;;5033344;28;20094;-67
2023/03/22 05:48:40;;;;;;;19.27;6.90;;;9.50;99.90;;;;;;5017137;28;20041;-67
2023/03/22 05:51:07;;;;;;;15.82;6.65;;;9.50;99.90;;;;;;5017196;28;20040;-68
2023/03/22 05:53:33;;;;;;;14.00;6.53;;;9.50;99.90;;;;;;5033647;28;20040;-68
2023/03/22 05:55:59;;;;;;;13.77;6.70;;;9.60;99.90;;;;;;5033628;28;20041;-68
2023/03/22 05:58:29;;;;;;;12.02;6.75;;;9.60;99.90;;;;;;5033455;28;20566;-68
2023/03/22 06:00:55;;;;;;;16.77;6.95;;;9.60;99.90;;;;;;5034151;28;20083;-68
2023/03/22 06:03:22;;;;;;;13.85;6.13;;;9.60;99.90;;;;;;5050428;28;20041;-68
2023/03/22 06:05:53;;;;;;;14.27;6.18;;;9.60;99.90;;;;;;5033906;28;20096;-68
2023/03/22 06:08:20;;;;;;;12.65;6.95;;;9.60;99.90;;;;;;5033710;28;20036;-68
2023/03/22 06:10:50;;;;;;;13.85;6.93;;;9.70;99.90;;;;;;5050971;28;20037;-68
2023/03/22 06:13:17;;;;;;;14.45;7.22;;;9.70;99.90;;;;;;5051005;28;20037;-68
2023/03/22 06:15:43;;;;;;;14.45;7.97;;;9.70;99.90;;;;;;5033884;28;20509;-67
2023/03/22 06:18:08;;;;;;;16.00;7.97;;;9.70;99.90;;;;;;5036722;28;20033;-68
2023/03/22 06:20:34;;;;;;;11.57;6.30;;;9.70;99.90;;;;;;5037360;28;20095;-68
2023/03/22 06:23:00;;;;;;;17.67;8.00;;;9.70;99.90;;;;;;5036856;28;20480;-68
2023/03/22 06:25:26;;;;;;;15.95;7.93;;;9.70;99.90;;;;;;5055202;28;20040;-67
2023/03/22 06:27:51;;;;;;;12.57;7.75;;;9.70;99.90;;;;;;5055371;28;20094;-68
2023/03/22 06:30:18;;;;;;;13.07;7.15;;;9.70;99.90;;;;;;5054026;28;20033;-68
2023/03/22 06:32:44;;;;;;;16.35;8.45;;;9.70;99.90;;;;;;5055256;28;20041;-68
2023/03/22 06:35:10;;;;;;;14.50;8.23;;;9.70;99.90;;;;;;5021159;28;20124;-68
2023/03/22 06:37:36;;;;;;;16.35;9.02;;;9.70;99.90;;;;;;5016956;28;20128;-67
2023/03/22 06:40:02;;;;;;;16.98;10.02;;;9.80;99.90;;;;;;5034894;28;20054;-68
2023/03/22 06:42:29;;;;;;;17.23;8.75;;;9.80;99.90;;;;;;5035104;28;20053;-68
2023/03/22 06:44:56;;;;;;;17.27;9.50;;;9.80;99.90;;;;;;5034474;28;20448;-67
2023/03/22 06:47:22;;;;;;;14.90;8.85;;;9.90;99.90;;;;;;5016875;28;20052;-68
2023/03/22 06:49:47;;;;;;;15.75;8.10;;;9.90;99.90;;;;;;5017154;28;20029;-68
2023/03/22 06:52:13;;;;;;;19.23;9.57;;;9.90;99.90;;;;;;5016307;28;20037;-68
2023/03/22 06:54:39;;;;;;;16.40;9.52;;;9.90;99.90;;;;;;5000971;28;20561;-67
2023/03/22 06:57:05;;;;;;;18.63;8.23;;;9.90;99.90;;;;;;5034312;28;20037;-67
2023/03/22 06:59:30;;;;;;;16.48;8.98;;;10.00;99.90;;;;;;5016506;28;20441;-68
2023/03/22 07:01:56;;;;;;;15.00;8.38;;;10.00;99.90;;;;;;5035759;28;20044;-67
2023/03/22 07:04:22;;;;;;;18.23;9.48;;;10.00;99.90;;;;;;5036304;28;20094;-68
2023/03/22 07:06:48;;;;;;;21.35;9.60;;;10.10;99.90;;;;;;5054189;28;20083;-64
2023/03/22 07:09:14;;;;;;;20.95;9.98;;;10.10;99.90;;;;;;5038041;28;20065;-66
2023/03/22 07:11:40;;;;;;;15.95;8.88;;;10.10;99.90;;;;;;5025057;28;20037;-67
2023/03/22 07:14:05;;;;;;;17.75;9.43;;;10.10;99.90;;;;;;4999626;28;20038;-67
2023/03/22 07:16:31;;;;;;;16.48;9.00;;;10.10;99.90;;;;;;5017299;28;20053;-67
2023/03/22 07:18:57;;;;;;;14.07;8.18;;;10.10;99.90;;;;;;5034884;28;20041;-66
2023/03/22 07:21:22;;;;;;;15.20;8.60;;;10.10;99.90;;;;;;5013455;28;20049;-67
2023/03/22 07:23:48;;;;;;;18.98;8.95;;;10.10;99.90;;;;;;5014399;28;20045;-66
2023/03/22 07:26:14;;;;;;;19.88;9.65;;;10.10;99.90;;;;;;5029790;28;20047;-67
2023/03/22 07:28:43;;;;;;;18.05;9.90;;;10.20;99.90;;;;;;5034043;28;20037;-67
2023/03/22 07:31:10;;;;;;;14.80;8.50;;;10.20;99.90;;;;;;5033284;28;20081;-66
2023/03/22 07:33:37;;;;;;;17.52;8.48;;;10.20;99.90;;;;;;5032863;28;20120;-67
2023/03/22 07:36:05;;;;;;;15.07;9.32;;;10.30;99.90;;;;;;5033509;28;20832;-67
2023/03/22 07:38:31;;;;;;;21.42;9.35;;;10.30;99.90;;;;;;5051873;28;20037;-66
2023/03/22 07:40:57;;;;;;;17.85;8.70;;;10.40;99.90;;;;;;5028982;28;20044;-67
2023/03/22 07:43:23;;;;;;;14.00;9.30;;;10.40;99.90;;;;;;5050191;28;20037;-67
2023/03/22 07:45:49;;;;;;;12.82;6.90;;;10.50;99.90;;;;;;5000280;28;20041;-67
2023/03/22 07:48:15;;;;;;;15.93;8.27;;;10.50;99.90;;;;;;5045949;28;20436;-67
2023/03/22 07:50:41;;;;;;;13.38;7.10;;;10.50;99.90;;;;;;5050169;28;20448;-67
2023/03/22 07:53:08;;;;;;;18.38;8.15;;;10.60;99.90;;;;;;5031302;28;20048;-69
2023/03/22 07:55:34;;;;;;;16.20;7.10;;;10.50;99.90;;;;;;5013252;28;20061;-67
2023/03/22 07:58:00;;;;;;;12.18;6.60;;;10.60;99.90;;;;;;5016153;28;20060;-68
2023/03/22 08:00:26;;;;;;;14.55;7.15;;;10.60;99.90;;;;;;5016585;28;20045;-68
2023/03/22 08:02:51;;;;;;;16.00;7.05;;;10.60;99.90;;;;;;5016752;28;20044;-67
2023/03/22 08:05:17;;;;;;;16.30;6.22;;;10.60;99.90;;;;;;5016121;28;20077;-68
2023/03/22 08:07:43;;;;;;;14.77;6.32;;;10.60;99.90;;;;;;5022987;28;20127;-68
2023/03/22 08:10:09;;;;;;;14.02;6.68;;;10.60;99.90;;;;;;5047477;28;20087;-68
2023/03/22 08:12:35;;;;;;;19.30;6.35;;;10.70;99.90;;;;;;5033025;28;20033;-67
2023/03/22 08:15:01;;;;;;;13.68;5.75;;;10.70;99.90;;;;;;5033038;28;20132;-67
2023/03/22 08:17:29;;;;;;;9.32;5.25;;;10.80;99.90;;;;;;5031422;28;20053;-68
2023/03/22 08:19:55;;;;;;;14.15;5.90;;;10.80;99.90;;;;;;5016474;28;20052;-68
2023/03/22 08:22:24;;;;;;;13.57;6.72;;;10.80;99.90;;;;;;5031796;28;20052;-67
2023/03/22 08:24:53;;;;;;;17.52;6.22;;;10.80;99.90;;;;;;5032686;28;20502;-68
2023/03/22 08:27:19;;;;;;;16.23;6.10;;;10.90;99.90;;;;;;5044871;28;20043;-70
2023/03/22 08:29:47;;;;;;;14.05;5.75;;;10.90;99.90;;;;;;5031973;28;20141;-68
2023/03/22 08:32:14;;;;;;;12.45;5.57;;;11.00;99.90;;;;;;5021840;28;20657;-68
2023/03/22 08:34:41;;;;;;;12.75;5.13;;;11.00;99.90;;;;;;5028488;28;20085;-72
2023/03/22 08:37:08;;;;;;;10.98;5.38;;;11.10;99.90;;;;;;5042657;28;20116;-71
2023/03/22 08:39:34;;;;;;;12.27;5.63;;;11.10;99.90;;;;;;5021971;28;20089;-70
2023/03/22 08:41:59;;;;;;;12.77;5.72;;;11.10;99.90;;;;;;5008336;28;20107;-70
2023/03/22 08:44:25;;;;;;;11.20;5.70;;;11.20;99.90;;;;;;5020954;28;20042;-71
2023/03/22 08:46:52;;;;;;;10.70;5.05;;;11.20;99.90;;;;;;5008442;28;20033;-72
2023/03/22 08:49:17;;;;;;;15.82;5.95;;;11.20;99.90;;;;;;4993105;28;20446;-68
2023/03/22 08:51:43;;;;;;;11.77;6.03;;;11.20;99.90;;;;;;4998681;28;20033;-69
2023/03/22 08:54:09;;;;;;;14.07;4.78;;;11.10;99.90;;;;;;5012473;28;20041;-67
2023/03/22 08:56:36;;;;;;;14.70;5.72;;;11.10;99.90;;;;;;4996200;28;20037;-68
2023/03/22 08:59:07;;;;;;;10.90;4.68;;;11.00;99.90;;;;;;4999585;28;20041;-70
2023/03/22 09:01:33;;;;;;;13.80;4.72;;;11.00;99.90;;;;;;5000731;28;20132;-70
2023/03/22 09:03:59;;;;;;;10.75;5.60;;;11.00;99.90;;;;;;5012249;28;20501;-68
2023/03/22 09:06:25;;;;;;;15.50;5.20;;;10.90;99.90;;;;;;5009025;28;20037;-69
2023/03/22 09:08:52;;;;;;;14.07;4.80;;;10.90;99.90;;;;;;5011009;28;20120;-70
2023/03/22 09:11:19;;;;;;;11.52;5.13;;;10.80;99.90;;;;;;5008342;28;20688;-69
2023/03/22 09:13:45;;;;;;;11.57;4.60;;;10.80;99.90;;;;;;5011536;28;20486;-68
2023/03/22 09:16:11;;;;;;;13.80;4.57;;;10.70;99.90;;;;;;5024146;28;20056;-71
2023/03/22 09:18:37;;;;;;;9.48;4.35;;;10.70;99.90;;;;;;5030095;28;20647;-69
2023/03/22 09:21:06;;;;;;;13.48;4.72;;;10.60;99.90;;;;;;4983850;28;20056;-70
2023/03/22 09:23:33;;;;;;;11.73;4.55;;;10.60;99.90;;;;;;4994582;28;20538;-70
2023/03/22 09:26:00;;;;;;;8.73;4.40;;;10.60;99.90;;;;;;4993690;28;20038;-70
2023/03/22 09:28:26;;;;;;;9.20;4.15;;;10.60;99.90;;;;;;5029402;28;20394;-69
2023/03/22 09:30:52;;;;;;;11.40;4.90;;;10.50;99.90;;;;;;5011088;28;20041;-69
2023/03/22 09:33:18;;;;;;;54.15;26.38;;;10.50;99.90;;;;;;4976933;28;20048;-68
2023/03/22 09:35:44;;;;;;;16.40;4.78;;;10.50;99.90;;;;;;5000453;28;20127;-68
2023/03/22 09:38:11;;;;;;;12.82;4.25;;;10.50;99.90;;;;;;4994753;28;20056;-68
2023/03/22 09:40:42;;;;;;;10.27;4.63;;;10.50;99.90;;;;;;5044280;28;20087;-67
2023/03/22 09:43:11;;;;;;;12.10;4.63;;;10.50;99.90;;;;;;5031083;28;20061;-68
2023/03/22 09:45:42;;;;;;;16.42;4.47;;;10.50;99.90;;;;;;5031452;28;20044;-71
2023/03/22 09:48:26;;;;;;;14.50;5.05;;;10.50;99.90;;;;;;5030075;28;20057;-69
2023/03/22 09:50:53;;;;;;;11.38;4.57;;;10.40;99.90;;;;;;5030641;28;20040;-68
2023/03/22 09:53:22;;;;;;;9.90;4.00;;;10.40;99.90;;;;;;5018570;28;20080;-68
2023/03/22 09:56:03;;;;;;;12.65;4.82;;;10.40;99.90;;;;;;5052998;28;20041;-70
2023/03/22 09:58:37;;;;;;;12.98;5.65;;;10.30;99.90;;;;;;5015381;28;20080;-70
2023/03/22 10:01:33;;;;;;;11.55;3.85;;;10.30;99.90;;;;;;5032634;28;20046;-69
2023/03/22 10:04:02;;;;;;;12.68;5.60;;;10.30;99.90;;;;;;5026186;28;20460;-69
2023/03/22 10:06:29;;;;;;;11.10;4.60;;;10.20;99.90;;;;;;5024035;28;20363;-69
2023/03/22 10:08:57;;;;;;;10.32;4.68;;;10.20;99.90;;;;;;5034688;28;20128;-71
2023/03/22 10:11:35;;;;;;;11.00;4.65;;;10.10;99.90;;;;;;5032357;28;20077;-68
2023/03/22 10:14:10;;;;;;;11.15;4.95;;;10.10;99.90;;;;;;5044242;28;20772;-69
2023/03/22 10:16:37;;;;;;;9.55;3.95;;;10.10;99.90;;;;;;5052056;28;20044;-68
2023/03/22 10:19:17;;;;;;;9.00;3.92;;;10.00;99.90;;;;;;5052410;28;20048;-69
2023/03/22 10:21:46;;;;;;;10.27;4.57;;;10.00;99.90;;;;;;5013661;28;20033;-68
2023/03/22 10:24:24;;;;;;;8.57;3.70;;;10.00;99.90;;;;;;5032242;28;20053;-69
2023/03/22 10:26:50;;;;;;;16.90;3.88;;;10.00;99.90;;;;;;5017604;28;20444;-68
2023/03/22 10:29:28;;;;;;;12.88;4.57;;;9.90;99.90;;;;;;5014083;28;20081;-68
2023/03/22 10:31:55;;;;;;;9.82;4.40;;;9.90;99.90;;;;;;5040722;28;20037;-68
2023/03/22 10:34:29;;;;;;;10.63;3.92;;;9.90;99.90;;;;;;5020774;28;20060;-67
2023/03/22 10:36:59;;;;;;;12.65;4.78;;;9.90;99.90;;;;;;5050952;28;20047;-68
2023/03/22 10:39:39;;;;;;;9.20;3.90;;;9.90;99.90;;;;;;5050461;28;20079;-68
2023/03/22 10:42:11;;;;;;;13.27;4.30;;;9.90;99.90;;;;;;5032716;28;20045;-67
2023/03/22 10:44:48;;;;;;;13.05;4.43;;;9.90;99.90;;;;;;5004046;28;20124;-68
2023/03/22 10:47:17;;;;;;;13.52;3.75;;;10.00;99.90;;;;;;5004917;28;20041;-67
2023/03/22 10:49:53;;;;;;;10.55;3.67;;;10.00;99.90;;;;;;5054935;28;20064;-67
2023/03/22 10:52:19;;;;;;;11.90;4.00;;;9.90;99.90;;;;;;5019387;28;20555;-68
2023/03/22 10:54:45;;;;;;;10.30;4.78;;;10.00;99.90;;;;;;5036114;28;20041;-67
2023/03/22 10:57:10;;;;;;;11.98;4.63;;;10.00;99.90;;;;;;5031416;28;20056;-67
2023/03/22 10:59:48;;;;;;;9.90;4.40;;;10.00;99.90;;;;;;5051227;28;20045;-76
2023/03/22 11:02:21;;;;;;;11.95;4.93;;;10.10;99.90;;;;;;5027243;28;20037;-77
2023/03/22 11:04:52;;;;;;;10.60;3.63;;;10.10;99.90;;;;;;5028202;28;20116;-77
2023/03/22 11:07:34;;;;;;;10.07;5.40;;;10.10;99.90;;;;;;5036671;28;20037;-75
2023/03/22 11:10:09;;;;;;;10.20;5.05;;;10.20;99.90;;;;;;5036854;28;20036;-75
2023/03/22 11:12:38;;;;;;;14.27;6.82;;;10.20;99.90;;;;;;5017972;28;20041;-75
2023/03/22 11:15:05;;;;;;;10.20;4.70;;;10.20;99.90;;;;;;5034546;28;20041;-75
2023/03/22 11:17:31;;;;;;;13.30;4.57;;;10.20;99.90;;;;;;5053120;28;20053;-76
2023/03/22 11:19:59;;;;;;;12.90;4.82;;;10.20;99.90;;;;;;5052772;28;20045;-77
2023/03/22 11:22:36;;;;;;;7.00;3.90;;;10.20;99.90;;;;;;5034661;28;20043;-75
2023/03/22 11:25:12;;;;;;;9.25;5.10;;;10.20;99.90;;;;;;5031123;28;20037;-75
2023/03/22 11:27:52;;;;;;;13.02;4.88;;;10.30;99.90;;;;;;5023409;28;20109;-76
2023/03/22 11:30:27;;;;;;;10.77;4.72;;;10.30;99.90;;;;;;5049298;28;20069;-75
2023/03/22 11:33:15;;;;;;;12.85;4.53;;;10.30;99.90;;;;;;5028423;28;20036;-75
2023/03/22 11:35:44;;;;;;;8.82;3.75;;;10.30;99.90;;;;;;5022869;28;20083;-76
2023/03/22 11:38:28;;;;;;;14.80;5.00;;;10.30;99.90;;;;;;5035457;28;20037;-76
2023/03/22 11:40:59;;;;;;;18.48;5.82;;;10.30;99.90;;;;;;5035108;28;20493;-77
2023/03/22 11:43:38;;;;;;;16.20;4.45;;;10.40;99.90;;;;;;5051192;28;20098;-76
2023/03/22 11:46:06;;;;;;;12.00;4.25;;;10.40;99.90;;;;;;5035050;28;20041;-76
2023/03/22 11:48:35;;;;;;;11.27;4.40;;;10.40;99.90;;;;;;5013102;28;20033;-76
2023/03/22 11:51:15;;;;;;;11.38;4.63;;;10.40;99.90;;;;;;5017802;28;20120;-75
2023/03/22 11:53:47;;;;;;;9.77;4.75;;;10.40;99.90;;;;;;5034430;28;20108;-75
2023/03/22 11:56:20;;;;;;;11.02;5.10;;;10.40;99.90;;;;;;5052153;28;20098;-75
2023/03/22 11:58:46;;;;;;;8.00;4.00;;;10.40;99.90;;;;;;5034312;28;20485;-74
2023/03/22 12:01:25;;;;;;;10.40;4.60;;;10.40;99.90;;;;;;5041974;28;20080;-74
2023/03/22 12:03:56;;;;;;;7.55;4.03;;;10.40;99.90;;;;;;5052172;28;20037;-76
2023/03/22 12:06:25;;;;;;;11.02;4.20;;;10.40;99.90;;;;;;5032082;28;20049;-75
2023/03/22 12:09:00;;;;;;;10.05;4.47;;;10.30;99.90;;;;;;5017056;28;20551;-75
2023/03/22 12:11:33;;;;;;;8.35;4.47;;;10.40;99.90;;;;;;5035741;28;20049;-75
2023/03/22 12:14:06;;;;;;;13.43;5.43;;;10.30;99.90;;;;;;5014608;28;20112;-76
2023/03/22 12:16:59;;;;;;;7.72;4.30;;;10.40;99.90;;;;;;5033166;28;20551;-75
2023/03/22 12:19:56;;;;;;;14.82;5.40;;;10.40;99.90;;;;;;5020708;28;20896;-76
2023/03/22 12:22:30;;;;;;;10.52;4.82;;;10.40;99.90;;;;;;5015212;28;20045;-75
2023/03/22 12:24:57;;;;;;;8.70;4.88;;;10.40;99.90;;;;;;5023806;28;20045;-75
2023/03/22 12:27:34;;;;;;;10.85;5.30;;;10.30;99.90;;;;;;5013838;28;20080;-75
2023/03/22 12:30:15;;;;;;;9.68;5.68;;;10.30;99.90;;;;;;5014103;28;20737;-74
2023/03/22 12:32:46;;;;;;;12.05;5.28;;;10.30;99.90;;;;;;5028503;28;20090;-75
2023/03/22 12:35:17;;;;;;;10.55;4.93;;;10.30;99.90;;;;;;5051017;28;20049;-75
2023/03/22 12:37:48;;;;;;;13.10;5.82;;;10.30;99.90;;;;;;5050785;28;20128;-75
2023/03/22 12:40:45;;;;;;;11.68;5.32;;;10.20;99.90;;;;;;5030090;28;20061;-75
2023/03/22 12:43:21;;;;;;;14.85;5.30;;;10.30;99.90;;;;;;5014061;28;20061;-75
2023/03/22 12:45:56;;;;;;;13.73;5.88;;;10.30;99.90;;;;;;5032649;28;20045;-75
2023/03/22 12:48:44;;;;;;;10.73;5.57;;;10.30;99.90;;;;;;5030024;28;20037;-74
2023/03/22 12:51:13;;;;;;;9.85;5.38;;;10.20;99.90;;;;;;5043170;28;20033;-75
2023/03/22 12:53:50;;;;;;;12.30;4.57;;;10.10;99.90;;;;;;5016724;28;20537;-72
2023/03/22 12:56:20;;;;;;;12.45;5.80;;;10.20;99.90;;;;;;5032018;28;20052;-72
2023/03/22 12:58:50;;;;;;;9.77;5.40;;;10.10;99.90;;;;;;5031880;28;20040;-75